createdAt,value
2023-03-02T00:01:31.799Z,53.23
2023-03-02T00:04:03.563Z,53.17
2023-03-02T00:06:34.765Z,53.21
2023-03-02T00:09:02.626Z,53.33
2023-03-02T00:11:31.821Z,53.20
2023-03-02T00:13:58.836Z,53.28
2023-03-02T00:16:26.528Z,53.23
2023-03-02T00:18:53.354Z,53.46
2023-03-02T00:21:20.236Z,53.44
2023-03-02T00:23:47.081Z,53.49
2023-03-02T00:26:14.021Z,53.53
2023-03-02T00:28:41.896Z,53.28
2023-03-02T00:31:09.299Z,53.44
2023-03-02T00:33:36.791Z,53.63
2023-03-02T00:36:04.022Z,53.45
2023-03-02T00:38:30.998Z,53.55
2023-03-02T00:40:59.553Z,53.70
2023-03-02T00:43:28.269Z,53.66
2023-03-02T00:45:57.068Z,53.27
2023-03-02T00:48:23.882Z,53.68
2023-03-02T00:50:51.095Z,53.59
2023-03-02T00:53:19.580Z,53.63
2023-03-02T00:55:55.702Z,53.73
2023-03-02T00:58:24.410Z,53.68
2023-03-02T01:00:53.396Z,53.53
2023-03-02T01:03:22.402Z,53.70
2023-03-02T01:05:49.774Z,53.63
2023-03-02T01:08:16.751Z,53.95
2023-03-02T01:10:44.075Z,53.81
2023-03-02T01:13:10.883Z,53.74
2023-03-02T01:15:37.782Z,53.75
2023-03-02T01:18:04.686Z,53.84
2023-03-02T01:20:31.680Z,53.87
2023-03-02T01:22:58.650Z,53.88
2023-03-02T01:25:26.948Z,53.84
2023-03-02T01:27:55.225Z,53.87
2023-03-02T01:30:22.131Z,54.12
2023-03-02T01:32:50.962Z,53.84
2023-03-02T01:35:18.215Z,54.02
2023-03-02T01:37:50.199Z,54.30
2023-03-02T01:40:17.269Z,54.01
2023-03-02T01:42:52.938Z,54.11
2023-03-02T01:45:52.259Z,54.36
2023-03-02T01:48:50.073Z,54.17
2023-03-02T01:51:26.309Z,54.05
2023-03-02T01:54:00.836Z,54.17
2023-03-02T01:56:34.826Z,54.22
2023-03-02T01:59:09.388Z,54.36
2023-03-02T02:01:39.900Z,54.29
2023-03-02T02:04:07.826Z,54.38
2023-03-02T02:06:39.768Z,54.61
2023-03-02T02:09:09.824Z,54.41
2023-03-02T02:11:37.037Z,54.39
2023-03-02T02:14:04.449Z,54.33
2023-03-02T02:16:35.326Z,54.61
2023-03-02T02:19:15.584Z,54.64
2023-03-02T02:21:43.227Z,54.64
2023-03-02T02:24:21.746Z,54.77
2023-03-02T02:26:54.714Z,54.92
2023-03-02T02:29:35.760Z,54.80
2023-03-02T02:32:07.243Z,54.76
2023-03-02T02:34:39.734Z,54.75
2023-03-02T02:37:14.289Z,54.75
2023-03-02T02:39:46.719Z,55.04
2023-03-02T02:42:19.844Z,54.93
2023-03-02T02:44:47.905Z,54.83
2023-03-02T02:47:20.605Z,55.09
2023-03-02T02:49:52.852Z,55.09
2023-03-02T02:52:23.637Z,55.00
2023-03-02T02:54:53.966Z,55.19
2023-03-02T02:57:24.774Z,55.10
2023-03-02T02:59:55.952Z,55.02
2023-03-02T03:02:26.336Z,55.23
2023-03-02T03:05:02.714Z,55.36
2023-03-02T03:07:32.970Z,55.29
2023-03-02T03:10:36.358Z,55.28
2023-03-02T03:13:03.233Z,55.22
2023-03-02T03:15:30.090Z,55.13
2023-03-02T03:17:58.540Z,55.39
2023-03-02T03:20:28.130Z,55.59
2023-03-02T03:22:55.346Z,55.29
2023-03-02T03:25:26.272Z,55.50
2023-03-02T03:27:54.801Z,55.55
2023-03-02T03:30:24.364Z,55.54
2023-03-02T03:32:52.009Z,55.34
2023-03-02T03:35:18.976Z,55.37
2023-03-02T03:37:48.665Z,55.40
2023-03-02T03:40:16.942Z,55.35
2023-03-02T03:42:45.378Z,55.46
2023-03-02T03:45:13.212Z,55.53
2023-03-02T03:47:41.664Z,55.35
2023-03-02T03:50:10.252Z,55.50
2023-03-02T03:52:37.755Z,55.54
2023-03-02T03:55:11.421Z,55.34
2023-03-02T03:57:38.859Z,55.69
2023-03-02T04:00:10.638Z,55.63
2023-03-02T04:02:42.161Z,55.59
2023-03-02T04:05:10.595Z,55.78
2023-03-02T04:07:39.601Z,55.55
2023-03-02T04:10:08.550Z,55.64
2023-03-02T04:12:42.294Z,55.73
2023-03-02T04:15:14.880Z,55.69
2023-03-02T04:17:43.643Z,55.84
2023-03-02T04:20:16.082Z,55.89
2023-03-02T04:22:47.139Z,55.81
2023-03-02T04:25:15.828Z,55.87
2023-03-02T04:27:42.629Z,55.69
2023-03-02T04:30:09.985Z,55.98
2023-03-02T04:32:36.893Z,55.82
2023-03-02T04:35:04.078Z,55.71
2023-03-02T04:37:31.368Z,56.05
2023-03-02T04:39:58.427Z,55.88
2023-03-02T04:42:25.165Z,55.87
2023-03-02T04:44:52.000Z,55.84
2023-03-02T04:47:18.809Z,55.77
2023-03-02T04:49:45.602Z,55.78
2023-03-02T04:52:12.385Z,55.90
2023-03-02T04:54:39.342Z,55.90
2023-03-02T04:57:06.140Z,55.74
2023-03-02T04:59:32.972Z,55.80
2023-03-02T05:02:00.958Z,55.91
2023-03-02T05:04:28.517Z,55.78
2023-03-02T05:06:55.315Z,55.73
2023-03-02T05:09:27.379Z,56.05
2023-03-02T05:11:55.552Z,55.88
2023-03-02T05:14:23.026Z,55.73
2023-03-02T05:16:50.072Z,55.82
2023-03-02T05:19:17.326Z,55.92
2023-03-02T05:21:44.781Z,55.87
2023-03-02T05:24:13.174Z,56.09
2023-03-02T05:26:40.804Z,55.92
2023-03-02T05:29:08.015Z,55.91
2023-03-02T05:31:41.861Z,55.82
2023-03-02T05:34:10.057Z,55.86
2023-03-02T05:36:37.621Z,55.80
2023-03-02T05:39:05.932Z,55.75
2023-03-02T05:41:33.031Z,55.89
2023-03-02T05:44:00.368Z,55.74
2023-03-02T05:46:27.587Z,55.81
2023-03-02T05:48:54.418Z,55.96
2023-03-02T05:51:21.197Z,55.90
2023-03-02T05:53:48.061Z,55.78
2023-03-02T05:56:14.922Z,55.87
2023-03-02T05:58:41.716Z,56.02
2023-03-02T06:01:14.791Z,55.77
2023-03-02T06:03:42.681Z,55.81
2023-03-02T06:06:14.354Z,55.90
2023-03-02T06:08:42.362Z,55.79
2023-03-02T06:11:09.308Z,55.91
2023-03-02T06:13:37.968Z,55.88
2023-03-02T06:16:05.568Z,56.13
2023-03-02T06:18:33.601Z,56.14
2023-03-02T06:21:00.323Z,56.01
2023-03-02T06:23:27.598Z,56.17
2023-03-02T06:25:54.583Z,56.05
2023-03-02T06:28:22.091Z,56.21
2023-03-02T06:30:49.976Z,55.91
2023-03-02T06:33:18.255Z,56.03
2023-03-02T06:35:45.746Z,56.11
2023-03-02T06:38:13.248Z,56.08
2023-03-02T06:40:40.250Z,55.89
2023-03-02T06:43:07.013Z,56.00
2023-03-02T06:45:34.117Z,55.91
2023-03-02T06:48:01.643Z,55.97
2023-03-02T06:50:28.785Z,56.09
2023-03-02T06:52:55.839Z,56.14
2023-03-02T06:55:22.635Z,56.07
2023-03-02T06:57:49.548Z,56.09
2023-03-02T07:00:17.874Z,56.11
2023-03-02T07:02:45.308Z,56.19
2023-03-02T07:05:13.248Z,56.09
2023-03-02T07:07:40.144Z,56.22
2023-03-02T07:10:08.037Z,56.06
2023-03-02T07:12:35.470Z,56.00
2023-03-02T07:15:02.311Z,56.06
2023-03-02T07:17:29.050Z,56.01
2023-03-02T07:19:55.786Z,56.19
2023-03-02T07:22:22.562Z,55.89
2023-03-02T07:24:49.285Z,56.09
2023-03-02T07:27:16.006Z,55.96
2023-03-02T07:29:42.767Z,55.83
2023-03-02T07:32:12.333Z,56.03
2023-03-02T07:34:39.635Z,55.82
2023-03-02T07:37:06.424Z,55.79
2023-03-02T07:39:33.203Z,55.92
2023-03-02T07:42:01.485Z,55.93
2023-03-02T07:44:29.412Z,55.90
2023-03-02T07:46:56.319Z,55.85
2023-03-02T07:49:23.118Z,55.88
2023-03-02T07:51:49.865Z,56.02
2023-03-02T07:54:16.631Z,55.87
2023-03-02T07:56:43.505Z,56.13
2023-03-02T07:59:12.169Z,55.80
2023-03-02T08:01:39.326Z,55.82
2023-03-02T08:04:06.184Z,55.69
2023-03-02T08:06:32.933Z,55.64
2023-03-02T08:09:03.100Z,55.66
2023-03-02T08:11:30.138Z,55.88
2023-03-02T08:14:01.165Z,55.94
2023-03-02T08:16:28.253Z,56.09
2023-03-02T08:18:56.891Z,56.24
2023-03-02T08:21:26.115Z,56.12
2023-03-02T08:23:53.250Z,55.60
2023-03-02T08:26:21.136Z,55.54
2023-03-02T08:28:48.330Z,55.46
2023-03-02T08:31:15.901Z,55.33
2023-03-02T08:33:46.400Z,55.36
2023-03-02T08:36:17.387Z,55.26
2023-03-02T08:38:44.715Z,55.14
2023-03-02T08:41:14.730Z,54.76
2023-03-02T08:43:42.174Z,54.73
2023-03-02T08:46:11.506Z,54.63
2023-03-02T08:48:38.625Z,55.02
2023-03-02T08:51:08.541Z,54.84
2023-03-02T08:53:38.751Z,54.20
2023-03-02T08:56:08.639Z,54.09
2023-03-02T08:58:35.415Z,54.01
2023-03-02T09:01:02.255Z,54.14
2023-03-02T09:03:29.026Z,54.04
2023-03-02T09:05:55.794Z,54.06
2023-03-02T09:08:22.526Z,53.93
2023-03-02T09:10:49.289Z,53.31
2023-03-02T09:13:16.111Z,53.54
2023-03-02T09:15:42.868Z,53.82
2023-03-02T09:18:09.698Z,53.87
2023-03-02T09:20:36.438Z,53.82
2023-03-02T09:23:03.193Z,53.57
2023-03-02T09:25:29.963Z,53.71
2023-03-02T09:27:56.704Z,53.65
2023-03-02T09:30:26.063Z,53.57
2023-03-02T09:32:53.365Z,53.62
2023-03-02T09:35:20.753Z,53.92
2023-03-02T09:37:49.922Z,53.88
2023-03-02T09:40:25.421Z,53.39
2023-03-02T09:43:04.309Z,53.22
2023-03-02T09:45:39.503Z,53.47
2023-03-02T09:48:14.816Z,53.36
2023-03-02T09:51:01.987Z,53.40
2023-03-02T09:53:43.010Z,52.58
2023-03-02T09:56:17.407Z,53.26
2023-03-02T09:58:54.175Z,53.67
2023-03-02T10:01:33.100Z,53.42
2023-03-02T10:04:18.489Z,54.31
2023-03-02T10:06:46.154Z,54.75
2023-03-02T10:09:13.615Z,54.81
2023-03-02T10:11:51.831Z,54.97
2023-03-02T10:14:26.338Z,54.67
2023-03-02T10:17:12.825Z,54.79
2023-03-02T10:19:44.600Z,54.01
2023-03-02T10:22:27.249Z,54.33
2023-03-02T10:25:00.921Z,53.74
2023-03-02T10:27:39.485Z,53.14
2023-03-02T10:30:18.479Z,53.32
2023-03-02T10:32:49.749Z,53.57
2023-03-02T10:35:26.134Z,52.15
2023-03-02T10:38:13.358Z,52.72
2023-03-02T10:40:45.822Z,53.36
2023-03-02T10:43:25.152Z,52.51
2023-03-02T10:46:07.809Z,51.77
2023-03-02T10:48:59.726Z,51.20
2023-03-02T10:51:30.980Z,51.47
2023-03-02T10:54:11.588Z,51.75
2023-03-02T10:56:42.006Z,51.22
2023-03-02T10:59:47.185Z,51.98
2023-03-02T11:02:19.292Z,51.35
2023-03-02T11:04:46.392Z,50.70
2023-03-02T11:07:19.853Z,50.99
2023-03-02T11:10:07.611Z,49.60
2023-03-02T11:12:37.567Z,49.61
2023-03-02T11:15:36.137Z,49.86
2023-03-02T11:18:16.020Z,50.36
2023-03-02T11:20:47.632Z,49.13
2023-03-02T11:23:36.570Z,49.50
2023-03-02T11:26:22.116Z,49.54
2023-03-02T11:29:04.533Z,48.73
2023-03-02T11:31:40.371Z,48.96
2023-03-02T11:34:22.357Z,49.50
2023-03-02T11:37:02.521Z,48.37
2023-03-02T11:39:50.000Z,48.41
2023-03-02T11:42:36.607Z,46.96
2023-03-02T11:45:27.451Z,48.13
2023-03-02T11:48:03.810Z,47.97
2023-03-02T11:50:34.175Z,46.13
2023-03-02T11:56:03.646Z,46.44
2023-03-02T11:58:32.639Z,47.30
2023-03-02T12:01:03.904Z,46.63
2023-03-02T12:03:30.673Z,46.85
2023-03-02T12:06:25.161Z,46.58
2023-03-02T12:09:08.123Z,46.61
2023-03-02T12:11:41.046Z,46.22
2023-03-02T12:14:41.245Z,45.40
2023-03-02T12:17:26.482Z,44.89
2023-03-02T12:20:06.838Z,43.89
2023-03-02T12:22:37.460Z,42.56
2023-03-02T12:25:08.379Z,43.38
2023-03-02T12:27:40.408Z,42.60
2023-03-02T12:30:24.641Z,43.14
2023-03-02T12:33:10.440Z,43.44
2023-03-02T12:35:39.451Z,42.71
2023-03-02T12:38:28.469Z,42.08
2023-03-02T12:41:12.912Z,42.63
2023-03-02T12:43:55.958Z,41.85
2023-03-02T12:46:34.759Z,41.80
2023-03-02T12:49:25.549Z,41.88
2023-03-02T12:52:02.123Z,41.69
2023-03-02T12:54:34.772Z,41.55
2023-03-02T12:57:21.182Z,40.64
2023-03-02T12:59:56.753Z,40.67
2023-03-02T13:02:35.810Z,40.70
2023-03-02T13:05:07.333Z,40.35
2023-03-02T13:07:42.145Z,39.90
2023-03-02T13:10:24.102Z,39.36
2023-03-02T13:12:51.044Z,38.83
2023-03-02T13:15:18.473Z,36.95
2023-03-02T13:17:53.466Z,37.85
2023-03-02T13:20:21.879Z,37.54
2023-03-02T13:22:49.139Z,38.45
2023-03-02T13:25:26.586Z,38.24
2023-03-02T13:27:56.193Z,37.06
2023-03-02T13:30:27.627Z,37.73
2023-03-02T13:33:01.038Z,36.94
2023-03-02T13:35:34.008Z,37.05
2023-03-02T13:38:14.218Z,37.12
2023-03-02T13:40:48.150Z,36.75
2023-03-02T13:43:30.633Z,37.20
2023-03-02T13:46:01.820Z,36.47
2023-03-02T13:48:30.180Z,37.09
2023-03-02T13:51:03.535Z,36.41
2023-03-02T13:53:35.017Z,36.10
2023-03-02T13:56:03.035Z,36.36
2023-03-02T13:58:34.181Z,37.25
2023-03-02T14:01:01.494Z,37.15
2023-03-02T14:03:31.171Z,36.98
2023-03-02T14:06:00.361Z,36.92
2023-03-02T14:08:27.428Z,36.98
2023-03-02T14:10:58.042Z,36.87
2023-03-02T14:13:41.849Z,36.85
2023-03-02T14:16:13.082Z,36.42
2023-03-02T14:18:43.350Z,36.15
2023-03-02T14:21:16.390Z,35.75
2023-03-02T14:23:46.653Z,35.71
2023-03-02T14:26:33.882Z,35.71
2023-03-02T14:29:05.797Z,35.63
2023-03-02T14:31:34.789Z,35.42
2023-03-02T14:34:02.347Z,34.97
2023-03-02T14:36:33.332Z,34.91
2023-03-02T14:39:05.636Z,34.81
2023-03-02T14:41:43.848Z,34.56
2023-03-02T14:44:15.222Z,34.46
2023-03-02T14:46:43.392Z,34.10
2023-03-02T14:49:11.504Z,34.53
2023-03-02T14:51:41.790Z,34.30
2023-03-02T14:54:14.745Z,34.83
2023-03-02T14:56:43.535Z,34.75
2023-03-02T14:59:15.456Z,35.06
2023-03-02T15:01:44.849Z,35.10
2023-03-02T15:04:13.518Z,35.49
2023-03-02T15:06:42.431Z,35.81
2023-03-02T15:09:11.405Z,35.54
2023-03-02T15:11:39.698Z,35.67
2023-03-02T15:14:06.523Z,36.04
2023-03-02T15:16:34.752Z,36.01
2023-03-02T15:19:01.979Z,36.29
2023-03-02T15:21:28.932Z,36.20
2023-03-02T15:23:56.122Z,36.51
2023-03-02T15:26:23.142Z,36.40
2023-03-02T15:28:52.385Z,36.94
2023-03-02T15:31:19.979Z,36.89
2023-03-02T15:33:47.027Z,36.92
2023-03-02T15:36:15.234Z,36.84
2023-03-02T15:38:43.678Z,36.93
2023-03-02T15:41:13.236Z,36.62
2023-03-02T15:43:41.460Z,36.56
2023-03-02T15:46:10.351Z,36.64
2023-03-02T15:48:37.715Z,36.80
2023-03-02T15:51:06.962Z,36.73
2023-03-02T15:53:39.876Z,36.63
2023-03-02T15:56:08.729Z,37.03
2023-03-02T15:58:35.749Z,37.13
2023-03-02T16:01:12.672Z,36.86
2023-03-02T16:03:42.310Z,36.88
2023-03-02T16:06:10.493Z,36.93
2023-03-02T16:08:39.071Z,37.02
2023-03-02T16:11:07.957Z,37.12
2023-03-02T16:13:35.379Z,37.34
2023-03-02T16:16:04.656Z,37.29
2023-03-02T16:18:32.178Z,37.18
2023-03-02T16:21:00.068Z,37.25
2023-03-02T16:23:29.186Z,37.21
2023-03-02T16:26:06.692Z,37.61
2023-03-02T16:28:33.597Z,37.75
2023-03-02T16:31:09.644Z,37.68
2023-03-02T16:33:37.181Z,37.99
2023-03-02T16:36:04.456Z,38.04
2023-03-02T16:38:34.672Z,38.04
2023-03-02T16:41:02.127Z,38.06
2023-03-02T16:43:29.330Z,38.27
2023-03-02T16:45:57.069Z,38.11
2023-03-02T16:48:24.677Z,38.45
2023-03-02T16:50:56.968Z,38.36
2023-03-02T16:53:24.880Z,38.60
2023-03-02T16:55:53.317Z,38.51
2023-03-02T16:58:23.954Z,38.78
2023-03-02T17:00:51.344Z,38.67
2023-03-02T17:03:19.789Z,38.85
2023-03-02T17:05:46.935Z,38.92
2023-03-02T17:08:16.539Z,38.94
2023-03-02T17:10:44.741Z,39.06
2023-03-02T17:13:15.596Z,39.28
2023-03-02T17:15:43.898Z,39.17
2023-03-02T17:18:11.375Z,39.30
2023-03-02T17:20:39.048Z,39.47
2023-03-02T17:23:06.233Z,39.58
2023-03-02T17:25:33.262Z,39.38
2023-03-02T17:28:00.058Z,39.59
2023-03-02T17:30:27.086Z,39.68
2023-03-02T17:32:54.311Z,39.71
2023-03-02T17:35:21.801Z,39.84
2023-03-02T17:37:49.760Z,39.79
2023-03-02T17:40:17.987Z,39.77
2023-03-02T17:42:44.979Z,39.91
2023-03-02T17:45:25.575Z,40.06
2023-03-02T17:47:54.320Z,40.24
2023-03-02T17:50:23.598Z,40.27
2023-03-02T17:52:50.649Z,40.41
2023-03-02T17:55:18.862Z,40.32
2023-03-02T17:57:46.056Z,40.60
2023-03-02T18:00:16.083Z,40.59
2023-03-02T18:02:47.574Z,41.02
2023-03-02T18:05:14.574Z,41.12
2023-03-02T18:07:42.142Z,40.91
2023-03-02T18:10:09.609Z,41.02
2023-03-02T18:12:36.840Z,41.24
2023-03-02T18:15:06.493Z,41.49
2023-03-02T18:17:33.415Z,41.51
2023-03-02T18:20:00.716Z,41.47
2023-03-02T18:22:27.665Z,41.69
2023-03-02T18:24:54.696Z,41.47
2023-03-02T18:27:21.803Z,41.60
2023-03-02T18:29:48.988Z,41.55
2023-03-02T18:32:16.042Z,41.59
2023-03-02T18:34:43.293Z,41.89
2023-03-02T18:37:10.295Z,41.97
2023-03-02T18:39:40.302Z,41.80
2023-03-02T18:42:07.687Z,41.99
2023-03-02T18:44:35.042Z,41.97
2023-03-02T18:47:05.588Z,42.13
2023-03-02T18:49:35.188Z,42.06
2023-03-02T18:52:05.948Z,42.29
2023-03-02T18:54:35.296Z,42.13
2023-03-02T18:57:03.961Z,42.38
2023-03-02T18:59:30.883Z,42.30
2023-03-02T19:01:59.021Z,42.43
2023-03-02T19:04:27.662Z,42.29
2023-03-02T19:06:56.274Z,42.36
2023-03-02T19:09:24.581Z,42.41
2023-03-02T19:11:54.362Z,42.50
2023-03-02T19:14:22.798Z,42.51
2023-03-02T19:16:50.046Z,42.75
2023-03-02T19:19:16.891Z,42.82
2023-03-02T19:21:44.486Z,42.73
2023-03-02T19:24:12.348Z,42.94
2023-03-02T19:26:39.505Z,42.94
2023-03-02T19:29:07.020Z,43.04
2023-03-02T19:31:34.308Z,42.98
2023-03-02T19:34:01.654Z,43.31
2023-03-02T19:36:28.615Z,43.16
2023-03-02T19:38:56.210Z,43.28
2023-03-02T19:41:23.141Z,43.33
2023-03-02T19:43:51.684Z,43.48
2023-03-02T19:46:19.980Z,43.45
2023-03-02T19:48:47.799Z,43.46
2023-03-02T19:51:16.652Z,43.88
2023-03-02T19:53:46.090Z,43.83
2023-03-02T19:56:14.775Z,44.05
2023-03-02T19:58:53.744Z,44.06
2023-03-02T20:01:24.164Z,44.11
2023-03-02T20:03:53.445Z,44.02
2023-03-02T20:06:25.016Z,44.06
2023-03-02T20:08:52.505Z,44.49
2023-03-02T20:11:24.066Z,44.61
2023-03-02T20:13:52.264Z,44.32
2023-03-02T20:16:23.324Z,44.52
2023-03-02T20:18:51.231Z,44.63
2023-03-02T20:21:19.939Z,44.59
2023-03-02T20:23:50.133Z,44.72
2023-03-02T20:26:17.696Z,44.76
2023-03-02T20:28:47.142Z,45.09
2023-03-02T20:31:17.475Z,45.13
2023-03-02T20:33:50.896Z,45.01
2023-03-02T20:36:29.536Z,45.21
2023-03-02T20:39:05.360Z,45.31
2023-03-02T20:41:32.671Z,45.33
2023-03-02T20:44:01.067Z,45.34
2023-03-02T20:46:33.925Z,45.41
2023-03-02T20:49:02.022Z,45.46
2023-03-02T20:51:30.893Z,45.63
2023-03-02T20:54:00.746Z,45.63
2023-03-02T20:56:28.694Z,45.70
2023-03-02T20:58:55.686Z,45.77
2023-03-02T21:01:24.012Z,45.90
2023-03-02T21:03:53.906Z,45.87
2023-03-02T21:06:22.626Z,45.87
2023-03-02T21:08:52.740Z,46.18
2023-03-02T21:11:21.844Z,46.37
2023-03-02T21:13:50.790Z,46.38
2023-03-02T21:16:30.438Z,46.76
2023-03-02T21:18:57.307Z,46.56
2023-03-02T21:21:40.400Z,46.82
2023-03-02T21:24:11.789Z,46.90
2023-03-02T21:26:39.561Z,46.92
2023-03-02T21:29:06.596Z,47.25
2023-03-02T21:31:33.741Z,47.51
2023-03-02T21:34:01.355Z,47.61
2023-03-02T21:36:29.708Z,48.05
2023-03-02T21:38:59.359Z,48.36
2023-03-02T21:41:26.254Z,48.86
2023-03-02T21:43:53.135Z,49.06
2023-03-02T21:46:23.483Z,49.44
2023-03-02T21:48:51.738Z,49.37
2023-03-02T21:51:18.819Z,49.50
2023-03-02T21:53:49.524Z,49.51
2023-03-02T21:56:24.001Z,49.58
2023-03-02T21:58:53.996Z,49.70
2023-03-02T22:01:21.533Z,49.85
2023-03-02T22:03:52.290Z,50.11
2023-03-02T22:06:26.573Z,50.14
2023-03-02T22:08:54.390Z,49.94
2023-03-02T22:11:24.770Z,50.11
2023-03-02T22:13:55.446Z,50.34
2023-03-02T22:16:24.494Z,50.21
2023-03-02T22:18:56.697Z,50.30
2023-03-02T22:21:43.453Z,50.47
2023-03-02T22:24:25.141Z,50.50
2023-03-02T22:27:19.506Z,50.48
2023-03-02T22:29:48.338Z,50.72
2023-03-02T22:32:25.618Z,50.94
2023-03-02T22:34:55.118Z,50.62
2023-03-02T22:37:29.174Z,50.75
2023-03-02T22:40:00.968Z,50.71
2023-03-02T22:42:30.889Z,50.88
2023-03-02T22:44:58.951Z,50.83
2023-03-02T22:47:28.633Z,51.01
2023-03-02T22:50:04.503Z,51.43
2023-03-02T22:52:39.818Z,51.16
2023-03-02T22:55:26.834Z,51.11
2023-03-02T22:57:53.701Z,51.14
2023-03-02T23:00:34.489Z,51.38
2023-03-02T23:03:01.470Z,51.55
2023-03-02T23:05:31.411Z,51.73
2023-03-02T23:08:18.022Z,51.50
2023-03-02T23:10:46.885Z,51.82
2023-03-02T23:13:15.944Z,51.80
2023-03-02T23:15:42.982Z,52.06
2023-03-02T23:18:26.348Z,52.32
2023-03-02T23:21:00.429Z,52.30
2023-03-02T23:23:27.945Z,52.05
2023-03-02T23:26:01.064Z,52.34
2023-03-02T23:28:29.468Z,52.68
2023-03-02T23:30:57.373Z,52.48
2023-03-02T23:33:24.380Z,52.67
2023-03-02T23:35:51.306Z,52.79
2023-03-02T23:38:18.199Z,52.64
2023-03-02T23:40:45.552Z,52.90
2023-03-02T23:43:12.396Z,52.60
2023-03-02T23:45:40.135Z,52.99
2023-03-02T23:48:07.303Z,53.16
2023-03-02T23:50:34.198Z,53.02
2023-03-02T23:53:01.673Z,52.83
2023-03-02T23:55:29.226Z,53.14
2023-03-02T23:57:56.412Z,53.08
